Svanen — LKXK — position and weather

sailwx.info

Track history (hours):
 
Tides and Currents Weather Stations Pressure Air Temp Water Temp Dewpoint Dewpoint Depression Visibility Wind Speed Wind Dir Waves Ship Positions

Svanen (Norway)

Ship's website: http://www.svanen.no/english/english.php1

Last reported at 2018-Aug-14 06:55 UTC. Time now 2018-Aug-14 07:05 UTC.
Position N 58°20' E 008°36'.

Length 27 m; draft 2.8 m.

Type: Sailing vessel. MMSI: 259173000.

Date/timePositionNaut miles runAvg speedWind from/ knotsBaromVisibWave heightAir tempDewpointWater temp
2018-Aug-14 06:55N 58°20' E 008°36'0 0.0
2018-Aug-14 06:23N 58°20' E 008°36'0 0.0
2018-Aug-14 05:58N 58°20' E 008°36'0 0.0
2018-Aug-14 05:20N 58°20' E 008°36'0 0.0
2018-Aug-14 04:58N 58°20' E 008°36'0 0.0
2018-Aug-14 04:28N 58°20' E 008°36'0 0.0
2018-Aug-14 03:52N 58°20' E 008°36'0 0.0
2018-Aug-14 03:28N 58°20' E 008°36'0 0.0
2018-Aug-14 02:58N 58°20' E 008°36'0 0.0
2018-Aug-14 02:26N 58°20' E 008°36'0 0.0
2018-Aug-14 01:56N 58°20' E 008°36'0 0.0
2018-Aug-14 01:22N 58°20' E 008°36'0 0.0
2018-Aug-14 00:56N 58°20' E 008°36'0 0.0
2018-Aug-14 00:26N 58°20' E 008°36'0 0.0
2018-Aug-13 23:56N 58°20' E 008°36'0 0.0
2018-Aug-13 23:26N 58°20' E 008°36'0 0.0
2018-Aug-13 22:55N 58°20' E 008°36'0 0.0
2018-Aug-13 22:23N 58°20' E 008°36'0 0.0
2018-Aug-13 21:49N 58°20' E 008°36'0 0.0
2018-Aug-13 21:29N 58°20' E 008°36'0 0.0
2018-Aug-13 20:43N 58°20' E 008°36'0 0.0
2018-Aug-13 20:25N 58°20' E 008°36'0 0.0
2018-Aug-13 19:52N 58°20' E 008°36'0 0.0
2018-Aug-13 19:22N 58°20' E 008°36'0 0.0
2018-Aug-13 18:55N 58°20' E 008°36'0 0.0
2018-Aug-13 18:25N 58°20' E 008°36'0 0.0
2018-Aug-13 17:58N 58°20' E 008°36'0 0.0
2018-Aug-13 17:28N 58°20' E 008°36'0 0.0
2018-Aug-13 16:50N 58°20' E 008°36'0 1.5
2018-Aug-13 16:30N 58°20' E 008°36'3 5.8
2018-Aug-13 16:00N 58°17' E 008°34'3 6.1
2018-Aug-13 15:30N 58°14' E 008°32'3 5.6
2018-Aug-13 15:00N 58°12' E 008°28'3 5.6
2018-Aug-13 14:30N 58°10' E 008°25'3 5.3
2018-Aug-13 14:00N 58°08' E 008°22'3 5.0
2018-Aug-13 13:30N 58°06' E 008°18'4 4.3
2018-Aug-13 12:41N 58°04' E 008°13'1 4.2
2018-Aug-13 12:29N 58°04' E 008°12'  
2018-Aug-09 09:11N 57°56' E 007°05'1 7.3
2018-Aug-09 09:00N 57°56' E 007°02'4 7.1
2018-Aug-09 08:30N 57°57' E 006°56'3 6.4
2018-Aug-09 07:59N 57°59' E 006°50'3 6.4
2018-Aug-09 07:30N 57°60' E 006°45'3 6.7
2018-Aug-09 07:00N 58°01' E 006°39'3 6.2
2018-Aug-09 06:30N 58°03' E 006°34'18 6.1
2018-Aug-09 03:28N 58°14' E 006°07'5 6.6
2018-Aug-09 02:46N 58°17' E 006°00'2 6.4
2018-Aug-09 02:30N 58°18' E 005°58'3 6.1
2018-Aug-09 01:59N 58°21' E 005°54'3 6.1
2018-Aug-09 01:30N 58°23' E 005°50'3 6.0
2018-Aug-09 01:00N 58°25' E 005°46'3 6.2
2018-Aug-09 00:30N 58°27' E 005°41'3 6.6
2018-Aug-08 23:59N 58°30' E 005°37'3 6.9
2018-Aug-08 23:30N 58°32' E 005°34'3 6.4
2018-Aug-08 23:00N 58°35' E 005°31'3 5.7
2018-Aug-08 22:30N 58°37' E 005°27'3 5.8
2018-Aug-08 22:00N 58°40' E 005°25'2 4.3
2018-Aug-08 21:30N 58°42' E 005°23'2 4.0
2018-Aug-08 21:00N 58°44' E 005°21'2 4.7
2018-Aug-08 20:30N 58°46' E 005°20'2 4.4
2018-Aug-08 20:00N 58°48' E 005°18'2 4.1
2018-Aug-08 19:30N 58°50' E 005°17'2 4.2
2018-Aug-08 19:00N 58°52' E 005°17'2 3.5
2018-Aug-08 18:30N 58°54' E 005°17'3 5.1
2018-Aug-08 18:00N 58°56' E 005°17'2 3.7
2018-Aug-08 17:30N 58°58' E 005°17'2 4.5
2018-Aug-08 17:00N 59°00' E 005°18'3 5.9
2018-Aug-08 16:30N 59°03' E 005°18'2 4.4
2018-Aug-08 16:00N 59°06' E 005°18'2 4.8
2018-Aug-08 15:30N 59°08' E 005°17'1 2.1
2018-Aug-08 15:00N 59°09' E 005°16'0 0.0
2018-Aug-08 14:27N 59°09' E 005°16'0 0.0
2018-Aug-08 13:57N 59°09' E 005°16'0 0.0
2018-Aug-08 13:27N 59°09' E 005°16'0 0.0
2018-Aug-08 13:00N 59°09' E 005°16'0 0.0
2018-Aug-08 12:27N 59°09' E 005°16'0 0.0
2018-Aug-08 11:57N 59°09' E 005°16'0 0.0
2018-Aug-08 11:27N 59°09' E 005°16'0 0.0
2018-Aug-08 11:00N 59°09' E 005°16'0 0.0
2018-Aug-08 10:30N 59°09' E 005°16'0 0.0
2018-Aug-08 09:57N 59°09' E 005°16'0 0.0
2018-Aug-08 09:27N 59°09' E 005°16'0 0.0
2018-Aug-08 09:01N 59°09' E 005°16'0 0.0
2018-Aug-08 08:30N 59°09' E 005°16'0 0.0
2018-Aug-08 08:00N 59°09' E 005°16'0 0.0
2018-Aug-08 07:30N 59°09' E 005°16'0 0.0
2018-Aug-08 07:00N 59°09' E 005°16'0 0.0
2018-Aug-08 06:28N 59°09' E 005°16'0 0.0
2018-Aug-08 05:58N 59°09' E 005°16'0 0.0
2018-Aug-08 05:25N 59°09' E 005°16'0 0.0
2018-Aug-08 04:57N 59°09' E 005°16'0 0.0
2018-Aug-08 04:30N 59°09' E 005°16'0 0.0
2018-Aug-08 04:00N 59°09' E 005°16'0 0.0
2018-Aug-08 03:27N 59°09' E 005°16'0 0.0
2018-Aug-08 03:00N 59°09' E 005°16'0 0.0
2018-Aug-08 02:28N 59°09' E 005°16'0 0.0
2018-Aug-08 01:57N 59°09' E 005°16'0 0.0
2018-Aug-08 01:30N 59°09' E 005°16'0 0.0
2018-Aug-08 00:58N 59°09' E 005°16'0 0.0
2018-Aug-08 00:27N 59°09' E 005°16'0 0.0
2018-Aug-08 00:00N 59°09' E 005°16'0 0.0
2018-Aug-07 23:27N 59°09' E 005°16'0 0.0
2018-Aug-07 22:58N 59°09' E 005°16'0 0.0
2018-Aug-07 22:27N 59°09' E 005°16'0 0.0
2018-Aug-07 21:58N 59°09' E 005°16'0 0.0
2018-Aug-07 21:27N 59°09' E 005°16'0 0.0
2018-Aug-07 21:00N 59°09' E 005°16'0 0.0
2018-Aug-07 20:30N 59°09' E 005°16'0 0.0
2018-Aug-07 20:00N 59°09' E 005°16'0 0.0
2018-Aug-07 19:30N 59°09' E 005°16'1 3.0
2018-Aug-07 19:01N 59°09' E 005°19'2 4.4
2018-Aug-07 18:30N 59°11' E 005°20'2 4.8
2018-Aug-07 18:01N 59°13' E 005°20'3 5.7
2018-Aug-07 17:30N 59°16' E 005°20'14 6.5
2018-Aug-07 15:22N 59°29' E 005°13'3 6.1
2018-Aug-07 14:50N 59°32' E 005°14'3 5.8
2018-Aug-07 14:22N 59°35' E 005°16'2 5.6
2018-Aug-07 14:00N 59°37' E 005°18'3 5.8
2018-Aug-07 13:27N 59°40' E 005°21'3 6.0
2018-Aug-07 12:59N 59°42' E 005°24'3 5.8
2018-Aug-07 12:30N 59°44' E 005°28'3 6.0
2018-Aug-07 12:00N 59°46' E 005°32'4 6.6
2018-Aug-07 11:28N 59°49' E 005°36'3 7.3
2018-Aug-07 11:00N 59°52' E 005°40'4 7.2
2018-Aug-07 10:30N 59°54' E 005°45'  
Track history (hours):
 
Tides and Currents Weather Stations Pressure Air Temp Water Temp Dewpoint Dewpoint Depression Visibility Wind Speed Wind Dir Waves Ship Positions

Svanen (Norway)

Ship's website: http://www.svanen.no/english/english.php1

Last reported at 2018-Aug-14 06:55 UTC. Time now 2018-Aug-14 07:05 UTC.
Position N 58°20' E 008°36'.

Length 27 m; draft 2.8 m.

Type: Sailing vessel. MMSI: 259173000.

Date/timePositionNaut miles runAvg speedWind from/ knotsBaromVisibWave heightAir tempDewpointWater temp
2018-Aug-14 06:55N 58°20' E 008°36'0 0.0
2018-Aug-14 06:23N 58°20' E 008°36'0 0.0
2018-Aug-14 05:58N 58°20' E 008°36'0 0.0
2018-Aug-14 05:20N 58°20' E 008°36'0 0.0
2018-Aug-14 04:58N 58°20' E 008°36'0 0.0
2018-Aug-14 04:28N 58°20' E 008°36'0 0.0
2018-Aug-14 03:52N 58°20' E 008°36'0 0.0
2018-Aug-14 03:28N 58°20' E 008°36'0 0.0
2018-Aug-14 02:58N 58°20' E 008°36'0 0.0
2018-Aug-14 02:26N 58°20' E 008°36'0 0.0
2018-Aug-14 01:56N 58°20' E 008°36'0 0.0
2018-Aug-14 01:22N 58°20' E 008°36'0 0.0
2018-Aug-14 00:56N 58°20' E 008°36'0 0.0
2018-Aug-14 00:26N 58°20' E 008°36'0 0.0
2018-Aug-13 23:56N 58°20' E 008°36'0 0.0
2018-Aug-13 23:26N 58°20' E 008°36'0 0.0
2018-Aug-13 22:55N 58°20' E 008°36'0 0.0
2018-Aug-13 22:23N 58°20' E 008°36'0 0.0
2018-Aug-13 21:49N 58°20' E 008°36'0 0.0
2018-Aug-13 21:29N 58°20' E 008°36'0 0.0
2018-Aug-13 20:43N 58°20' E 008°36'0 0.0
2018-Aug-13 20:25N 58°20' E 008°36'0 0.0
2018-Aug-13 19:52N 58°20' E 008°36'0 0.0
2018-Aug-13 19:22N 58°20' E 008°36'0 0.0
2018-Aug-13 18:55N 58°20' E 008°36'0 0.0
2018-Aug-13 18:25N 58°20' E 008°36'0 0.0
2018-Aug-13 17:58N 58°20' E 008°36'0 0.0
2018-Aug-13 17:28N 58°20' E 008°36'0 0.0
2018-Aug-13 16:50N 58°20' E 008°36'0 1.5
2018-Aug-13 16:30N 58°20' E 008°36'3 5.8
2018-Aug-13 16:00N 58°17' E 008°34'3 6.1
2018-Aug-13 15:30N 58°14' E 008°32'3 5.6
2018-Aug-13 15:00N 58°12' E 008°28'3 5.6
2018-Aug-13 14:30N 58°10' E 008°25'3 5.3
2018-Aug-13 14:00N 58°08' E 008°22'3 5.0
2018-Aug-13 13:30N 58°06' E 008°18'4 4.3
2018-Aug-13 12:41N 58°04' E 008°13'1 4.2
2018-Aug-13 12:29N 58°04' E 008°12'  
2018-Aug-09 09:11N 57°56' E 007°05'1 7.3
2018-Aug-09 09:00N 57°56' E 007°02'4 7.1
2018-Aug-09 08:30N 57°57' E 006°56'3 6.4
2018-Aug-09 07:59N 57°59' E 006°50'3 6.4
2018-Aug-09 07:30N 57°60' E 006°45'3 6.7
2018-Aug-09 07:00N 58°01' E 006°39'3 6.2
2018-Aug-09 06:30N 58°03' E 006°34'18 6.1
2018-Aug-09 03:28N 58°14' E 006°07'5 6.6
2018-Aug-09 02:46N 58°17' E 006°00'2 6.4
2018-Aug-09 02:30N 58°18' E 005°58'3 6.1
2018-Aug-09 01:59N 58°21' E 005°54'3 6.1
2018-Aug-09 01:30N 58°23' E 005°50'3 6.0
2018-Aug-09 01:00N 58°25' E 005°46'3 6.2
2018-Aug-09 00:30N 58°27' E 005°41'3 6.6
2018-Aug-08 23:59N 58°30' E 005°37'3 6.9
2018-Aug-08 23:30N 58°32' E 005°34'3 6.4
2018-Aug-08 23:00N 58°35' E 005°31'3 5.7
2018-Aug-08 22:30N 58°37' E 005°27'3 5.8
2018-Aug-08 22:00N 58°40' E 005°25'2 4.3
2018-Aug-08 21:30N 58°42' E 005°23'2 4.0
2018-Aug-08 21:00N 58°44' E 005°21'2 4.7
2018-Aug-08 20:30N 58°46' E 005°20'2 4.4
2018-Aug-08 20:00N 58°48' E 005°18'2 4.1
2018-Aug-08 19:30N 58°50' E 005°17'2 4.2
2018-Aug-08 19:00N 58°52' E 005°17'2 3.5
2018-Aug-08 18:30N 58°54' E 005°17'3 5.1
2018-Aug-08 18:00N 58°56' E 005°17'2 3.7
2018-Aug-08 17:30N 58°58' E 005°17'2 4.5
2018-Aug-08 17:00N 59°00' E 005°18'3 5.9
2018-Aug-08 16:30N 59°03' E 005°18'2 4.4
2018-Aug-08 16:00N 59°06' E 005°18'2 4.8
2018-Aug-08 15:30N 59°08' E 005°17'1 2.1
2018-Aug-08 15:00N 59°09' E 005°16'0 0.0
2018-Aug-08 14:27N 59°09' E 005°16'0 0.0
2018-Aug-08 13:57N 59°09' E 005°16'0 0.0
2018-Aug-08 13:27N 59°09' E 005°16'0 0.0
2018-Aug-08 13:00N 59°09' E 005°16'0 0.0
2018-Aug-08 12:27N 59°09' E 005°16'0 0.0
2018-Aug-08 11:57N 59°09' E 005°16'0 0.0
2018-Aug-08 11:27N 59°09' E 005°16'0 0.0
2018-Aug-08 11:00N 59°09' E 005°16'0 0.0
2018-Aug-08 10:30N 59°09' E 005°16'0 0.0
2018-Aug-08 09:57N 59°09' E 005°16'0 0.0
2018-Aug-08 09:27N 59°09' E 005°16'0 0.0
2018-Aug-08 09:01N 59°09' E 005°16'0 0.0
2018-Aug-08 08:30N 59°09' E 005°16'0 0.0
2018-Aug-08 08:00N 59°09' E 005°16'0 0.0
2018-Aug-08 07:30N 59°09' E 005°16'0 0.0
2018-Aug-08 07:00N 59°09' E 005°16'0 0.0
2018-Aug-08 06:28N 59°09' E 005°16'0 0.0
2018-Aug-08 05:58N 59°09' E 005°16'0 0.0
2018-Aug-08 05:25N 59°09' E 005°16'0 0.0
2018-Aug-08 04:57N 59°09' E 005°16'0 0.0
2018-Aug-08 04:30N 59°09' E 005°16'0 0.0
2018-Aug-08 04:00N 59°09' E 005°16'0 0.0
2018-Aug-08 03:27N 59°09' E 005°16'0 0.0
2018-Aug-08 03:00N 59°09' E 005°16'0 0.0
2018-Aug-08 02:28N 59°09' E 005°16'0 0.0
2018-Aug-08 01:57N 59°09' E 005°16'0 0.0
2018-Aug-08 01:30N 59°09' E 005°16'0 0.0
2018-Aug-08 00:58N 59°09' E 005°16'0 0.0
2018-Aug-08 00:27N 59°09' E 005°16'0 0.0
2018-Aug-08 00:00N 59°09' E 005°16'0 0.0
2018-Aug-07 23:27N 59°09' E 005°16'0 0.0
2018-Aug-07 22:58N 59°09' E 005°16'0 0.0
2018-Aug-07 22:27N 59°09' E 005°16'0 0.0
2018-Aug-07 21:58N 59°09' E 005°16'0 0.0
2018-Aug-07 21:27N 59°09' E 005°16'0 0.0
2018-Aug-07 21:00N 59°09' E 005°16'0 0.0
2018-Aug-07 20:30N 59°09' E 005°16'0 0.0
2018-Aug-07 20:00N 59°09' E 005°16'0 0.0
2018-Aug-07 19:30N 59°09' E 005°16'1 3.0
2018-Aug-07 19:01N 59°09' E 005°19'2 4.4
2018-Aug-07 18:30N 59°11' E 005°20'2 4.8
2018-Aug-07 18:01N 59°13' E 005°20'3 5.7
2018-Aug-07 17:30N 59°16' E 005°20'14 6.5
2018-Aug-07 15:22N 59°29' E 005°13'3 6.1
2018-Aug-07 14:50N 59°32' E 005°14'3 5.8
2018-Aug-07 14:22N 59°35' E 005°16'2 5.6
2018-Aug-07 14:00N 59°37' E 005°18'3 5.8
2018-Aug-07 13:27N 59°40' E 005°21'3 6.0
2018-Aug-07 12:59N 59°42' E 005°24'3 5.8
2018-Aug-07 12:30N 59°44' E 005°28'3 6.0
2018-Aug-07 12:00N 59°46' E 005°32'4 6.6
2018-Aug-07 11:28N 59°49' E 005°36'3 7.3
2018-Aug-07 11:00N 59°52' E 005°40'4 7.2
2018-Aug-07 10:30N 59°54' E 005°45'  

Dump ship's entire track history